createdAt,value
2023-05-13T00:01:31.529Z,101365.03
2023-05-13T00:03:58.556Z,101359.81
2023-05-13T00:06:25.613Z,101368.31
2023-05-13T00:08:54.682Z,101364.81
2023-05-13T00:11:21.701Z,101366.00
2023-05-13T00:13:48.732Z,101366.31
2023-05-13T00:16:15.989Z,101362.97
2023-05-13T00:18:43.077Z,101364.84
2023-05-13T00:21:10.459Z,101374.66
2023-05-13T00:23:37.941Z,101371.53
2023-05-13T00:26:05.222Z,101374.19
2023-05-13T00:28:32.256Z,101373.19
2023-05-13T00:30:59.332Z,101373.59
2023-05-13T00:33:26.399Z,101370.00
2023-05-13T00:35:53.465Z,101372.75
2023-05-13T00:38:20.550Z,101374.31
2023-05-13T00:40:48.449Z,101375.69
2023-05-13T00:43:15.477Z,101379.50
2023-05-13T00:45:42.550Z,101379.53
2023-05-13T00:48:10.249Z,101387.91
2023-05-13T00:50:38.857Z,101389.25
2023-05-13T00:53:05.921Z,101393.91
2023-05-13T00:55:33.130Z,101386.22
2023-05-13T00:58:00.204Z,101387.38
2023-05-13T01:00:31.161Z,101386.88
2023-05-13T01:03:12.790Z,101392.44
2023-05-13T01:05:56.807Z,101386.03
2023-05-13T01:08:42.199Z,101393.44
2023-05-13T01:11:29.636Z,101397.06
2023-05-13T01:14:29.249Z,101397.69
2023-05-13T01:17:07.896Z,101391.28
2023-05-13T01:19:54.492Z,101397.25
2023-05-13T01:22:21.583Z,101399.19
2023-05-13T01:24:50.406Z,101406.63
2023-05-13T01:27:17.778Z,101409.69
2023-05-13T01:29:45.670Z,101416.59
2023-05-13T01:32:13.971Z,101409.03
2023-05-13T01:34:41.765Z,101413.91
2023-05-13T01:37:09.215Z,101420.56
2023-05-13T01:39:38.655Z,101419.28
2023-05-13T01:42:09.239Z,101423.88
2023-05-13T01:44:36.364Z,101420.69
2023-05-13T01:47:03.423Z,101425.78
2023-05-13T01:49:30.722Z,101423.78
2023-05-13T01:51:57.891Z,101428.13
2023-05-13T01:54:25.848Z,101415.66
2023-05-13T01:56:52.936Z,101421.97
2023-05-13T01:59:19.998Z,101427.00
2023-05-13T02:01:47.057Z,101429.25
2023-05-13T02:04:14.167Z,101420.22
2023-05-13T02:06:41.235Z,101426.84
2023-05-13T02:09:08.309Z,101422.09
2023-05-13T02:11:36.473Z,101424.72
2023-05-13T02:14:03.578Z,101419.50
2023-05-13T02:16:31.625Z,101427.44
2023-05-13T02:18:58.794Z,101429.63
2023-05-13T02:21:26.023Z,101431.72
2023-05-13T02:23:53.205Z,101427.31
2023-05-13T02:26:20.781Z,101432.22
2023-05-13T02:28:48.304Z,101426.72
2023-05-13T02:31:15.389Z,101430.66
2023-05-13T02:33:42.508Z,101433.16
2023-05-13T02:36:09.635Z,101435.81
2023-05-13T02:38:36.958Z,101440.34
2023-05-13T02:41:04.100Z,101434.84
2023-05-13T02:43:31.161Z,101431.75
2023-05-13T02:45:58.355Z,101437.22
2023-05-13T02:48:25.515Z,101444.78
2023-05-13T02:50:52.724Z,101439.16
2023-05-13T02:53:19.721Z,101437.97
2023-05-13T02:55:46.919Z,101442.88
2023-05-13T02:58:14.110Z,101438.91
2023-05-13T03:00:41.315Z,101443.56
2023-05-13T03:03:08.530Z,101438.63
2023-05-13T03:05:35.746Z,101435.06
2023-05-13T03:08:02.832Z,101443.13
2023-05-13T03:10:29.972Z,101448.59
2023-05-13T03:12:57.224Z,101443.09
2023-05-13T03:15:24.437Z,101452.56
2023-05-13T03:17:51.593Z,101452.06
2023-05-13T03:20:18.861Z,101448.25
2023-05-13T03:22:45.968Z,101456.47
2023-05-13T03:25:13.037Z,101451.75
2023-05-13T03:27:40.190Z,101453.44
2023-05-13T03:30:08.287Z,101453.75
2023-05-13T03:32:35.809Z,101463.63
2023-05-13T03:35:03.574Z,101463.06
2023-05-13T03:37:30.802Z,101460.56
2023-05-13T03:39:57.970Z,101459.34
2023-05-13T03:42:26.139Z,101455.84
2023-05-13T03:44:53.264Z,101462.28
2023-05-13T03:47:20.415Z,101463.56
2023-05-13T03:49:48.851Z,101455.84
2023-05-13T03:52:16.718Z,101461.09
2023-05-13T03:54:43.993Z,101466.78
2023-05-13T03:57:11.080Z,101467.78
2023-05-13T03:59:38.138Z,101474.38
2023-05-13T04:02:06.286Z,101472.50
2023-05-13T04:04:33.461Z,101480.16
2023-05-13T04:07:00.527Z,101476.78
2023-05-13T04:09:27.578Z,101479.16
2023-05-13T04:11:54.663Z,101484.72
2023-05-13T04:14:21.706Z,101484.00
2023-05-13T04:16:48.986Z,101492.69
2023-05-13T04:19:16.419Z,101490.41
2023-05-13T04:21:43.511Z,101497.94
2023-05-13T04:24:10.840Z,101494.75
2023-05-13T04:26:39.118Z,101497.50
2023-05-13T04:29:06.160Z,101502.47
2023-05-13T04:31:33.359Z,101501.91
2023-05-13T04:34:00.893Z,101513.69
2023-05-13T04:36:28.011Z,101511.88
2023-05-13T04:38:55.696Z,101511.84
2023-05-13T04:41:22.757Z,101509.25
2023-05-13T04:43:49.855Z,101513.66
2023-05-13T04:46:17.192Z,101518.31
2023-05-13T04:48:48.155Z,101514.03
2023-05-13T04:51:16.491Z,101522.13
2023-05-13T04:53:44.090Z,101527.72
2023-05-13T04:56:11.230Z,101524.16
2023-05-13T04:58:38.817Z,101527.19
2023-05-13T05:01:06.118Z,101527.78
2023-05-13T05:03:33.828Z,101527.31
2023-05-13T05:06:00.992Z,101521.09
2023-05-13T05:08:28.781Z,101516.59
2023-05-13T05:10:56.004Z,101522.81
2023-05-13T05:13:23.114Z,101522.47
2023-05-13T05:15:50.276Z,101532.97
2023-05-13T05:18:17.395Z,101536.16
2023-05-13T05:20:44.525Z,101529.16
2023-05-13T05:23:11.807Z,101525.84
2023-05-13T05:25:39.118Z,101530.44
2023-05-13T05:28:06.385Z,101534.47
2023-05-13T05:30:39.427Z,101529.69
2023-05-13T05:33:08.186Z,101536.50
2023-05-13T05:35:38.374Z,101539.63
2023-05-13T05:38:07.760Z,101536.84
2023-05-13T05:40:41.674Z,101538.06
2023-05-13T05:43:10.961Z,101542.00
2023-05-13T05:45:39.278Z,101543.25
2023-05-13T05:48:07.490Z,101547.19
2023-05-13T05:50:34.975Z,101552.16
2023-05-13T05:53:02.842Z,101549.50
2023-05-13T05:55:32.355Z,101545.34
2023-05-13T05:58:05.333Z,101545.22
2023-05-13T06:00:33.354Z,101550.16
2023-05-13T06:03:00.624Z,101548.09
2023-05-13T06:05:28.194Z,101548.91
2023-05-13T06:07:55.261Z,101559.16
2023-05-13T06:10:22.496Z,101546.66
2023-05-13T06:12:51.326Z,101565.63
2023-05-13T06:15:18.566Z,101557.25
2023-05-13T06:17:45.666Z,101565.72
2023-05-13T06:20:13.155Z,101554.06
2023-05-13T06:22:41.761Z,101570.09
2023-05-13T06:25:09.388Z,101568.59
2023-05-13T06:27:37.141Z,101561.13
2023-05-13T06:30:05.377Z,101560.00
2023-05-13T06:32:32.663Z,101562.97
2023-05-13T06:34:59.750Z,101566.59
2023-05-13T06:37:27.044Z,101566.16
2023-05-13T06:39:54.166Z,101559.94
2023-05-13T06:42:21.390Z,101563.34
2023-05-13T06:44:48.548Z,101556.28
2023-05-13T06:47:22.511Z,101560.28
2023-05-13T06:49:50.940Z,101544.84
2023-05-13T06:52:18.315Z,101539.53
2023-05-13T06:54:45.378Z,101541.81
2023-05-13T06:57:12.451Z,101546.00
2023-05-13T06:59:39.798Z,101546.22
2023-05-13T07:02:09.680Z,101539.97
2023-05-13T07:04:37.438Z,101534.16
2023-05-13T07:07:04.907Z,101542.94
2023-05-13T07:09:33.150Z,101540.59
2023-05-13T07:12:00.382Z,101530.91
2023-05-13T07:14:27.780Z,101535.50
2023-05-13T07:16:54.984Z,101530.69
2023-05-13T07:19:22.182Z,101532.13
2023-05-13T07:21:49.548Z,101523.91
2023-05-13T07:24:16.863Z,101519.19
2023-05-13T07:26:45.132Z,101526.81
2023-05-13T07:29:12.192Z,101514.66
2023-05-13T07:31:39.406Z,101516.63
2023-05-13T07:34:06.762Z,101517.94
2023-05-13T07:36:34.249Z,101514.00
2023-05-13T07:39:02.260Z,101512.09
2023-05-13T07:41:29.580Z,101513.47
2023-05-13T07:43:57.089Z,101509.59
2023-05-13T07:46:24.223Z,101508.69
2023-05-13T07:48:51.315Z,101510.72
2023-05-13T07:51:18.440Z,101502.75
2023-05-13T07:53:46.973Z,101513.03
2023-05-13T07:56:14.048Z,101505.66
2023-05-13T07:58:41.127Z,101518.63
2023-05-13T08:01:08.249Z,101513.91
2023-05-13T08:03:36.049Z,101512.53
2023-05-13T08:06:03.345Z,101524.06
2023-05-13T08:08:30.425Z,101507.41
2023-05-13T08:10:57.712Z,101507.38
2023-05-13T08:13:25.656Z,101488.91
2023-05-13T08:15:52.725Z,101506.84
2023-05-13T08:18:20.084Z,101509.63
2023-05-13T08:20:47.268Z,101501.63
2023-05-13T08:23:14.754Z,101494.53
2023-05-13T08:25:41.929Z,101504.75
2023-05-13T08:28:08.970Z,101505.09
2023-05-13T08:30:38.877Z,101497.91
2023-05-13T08:33:05.931Z,101501.69
2023-05-13T08:35:33.162Z,101497.66
2023-05-13T08:38:00.424Z,101504.91
2023-05-13T08:40:28.015Z,101488.13
2023-05-13T08:42:57.702Z,101503.84
2023-05-13T08:45:28.804Z,101507.53
2023-05-13T08:48:02.970Z,101503.44
2023-05-13T08:50:30.667Z,101500.31
2023-05-13T08:53:00.942Z,101516.91
2023-05-13T08:55:29.207Z,101506.72
2023-05-13T08:57:56.571Z,101519.56
2023-05-13T09:00:23.944Z,101508.13
2023-05-13T09:02:51.761Z,101519.34
2023-05-13T09:05:21.230Z,101512.56
2023-05-13T09:07:48.567Z,101514.00
2023-05-13T09:10:17.491Z,101511.00
2023-05-13T09:12:54.640Z,101504.09
2023-05-13T09:15:27.507Z,101509.00
2023-05-13T09:18:18.014Z,101499.06
2023-05-13T09:20:46.121Z,101494.72
2023-05-13T09:23:15.856Z,101502.91
2023-05-13T09:25:43.795Z,101500.63
2023-05-13T09:28:15.316Z,101503.72
2023-05-13T09:30:46.157Z,101506.13
2023-05-13T09:33:22.805Z,101493.94
2023-05-13T09:35:53.602Z,101492.72
2023-05-13T09:38:37.071Z,101490.19
2023-05-13T09:41:04.991Z,101493.09
2023-05-13T09:43:33.686Z,101490.44
2023-05-13T09:46:08.963Z,101487.22
2023-05-13T09:48:39.208Z,101493.31
2023-05-13T09:51:06.281Z,101489.84
2023-05-13T09:53:36.100Z,101490.13
2023-05-13T09:56:03.234Z,101485.22
2023-05-13T09:58:31.049Z,101478.28
2023-05-13T10:00:58.704Z,101489.19
2023-05-13T10:03:27.246Z,101478.84
2023-05-13T10:05:55.167Z,101479.28
2023-05-13T10:08:23.311Z,101480.09
2023-05-13T10:10:53.908Z,101470.44
2023-05-13T10:13:25.384Z,101477.09
2023-05-13T10:15:55.371Z,101472.59
2023-05-13T10:18:27.448Z,101475.84
2023-05-13T10:20:55.660Z,101476.31
2023-05-13T10:23:24.202Z,101465.28
2023-05-13T10:25:55.308Z,101476.88
2023-05-13T10:28:25.088Z,101476.88
2023-05-13T10:30:52.512Z,101468.34
2023-05-13T10:33:20.535Z,101468.28
2023-05-13T10:36:22.538Z,101465.41
2023-05-13T10:39:42.627Z,101457.41
2023-05-13T10:42:43.056Z,101462.13
2023-05-13T10:45:11.178Z,101455.53
2023-05-13T10:47:39.343Z,101455.41
2023-05-13T10:50:26.978Z,101452.59
2023-05-13T10:52:58.651Z,101447.09
2023-05-13T10:55:27.382Z,101452.69
2023-05-13T10:58:14.958Z,101442.19
2023-05-13T11:00:45.345Z,101442.31
2023-05-13T11:03:20.281Z,101453.13
2023-05-13T11:06:13.441Z,101453.44
2023-05-13T11:08:50.216Z,101448.19
2023-05-13T11:11:23.072Z,101447.38
2023-05-13T11:14:03.571Z,101445.25
2023-05-13T11:16:33.091Z,101452.72
2023-05-13T11:19:18.833Z,101453.84
2023-05-13T11:21:52.917Z,101443.34
2023-05-13T11:24:22.038Z,101450.59
2023-05-13T11:26:52.880Z,101450.84
2023-05-13T11:29:36.149Z,101430.16
2023-05-13T11:32:06.791Z,101434.59
2023-05-13T11:34:34.848Z,101440.09
2023-05-13T11:37:04.957Z,101435.69
2023-05-13T11:39:33.363Z,101436.03
2023-05-13T11:42:03.955Z,101424.81
2023-05-13T11:44:31.562Z,101441.16
2023-05-13T11:47:03.141Z,101434.84
2023-05-13T11:49:41.391Z,101439.69
2023-05-13T11:52:15.114Z,101434.66
2023-05-13T11:54:54.039Z,101425.22
2023-05-13T11:57:32.438Z,101425.19
2023-05-13T12:00:08.441Z,101426.28
2023-05-13T12:02:40.155Z,101416.56
2023-05-13T12:05:11.179Z,101431.38
2023-05-13T12:07:39.780Z,101424.75
2023-05-13T12:10:08.242Z,101415.44
2023-05-13T12:12:50.558Z,101427.53
2023-05-13T12:15:20.873Z,101429.69
2023-05-13T12:17:49.360Z,101432.25
2023-05-13T12:20:24.609Z,101414.91
2023-05-13T12:22:54.660Z,101420.09
2023-05-13T12:25:46.561Z,101422.09
2023-05-13T12:28:24.107Z,101424.50
2023-05-13T12:30:56.876Z,101429.78
2023-05-13T12:33:27.569Z,101427.09
2023-05-13T12:36:16.162Z,101432.94
2023-05-13T12:39:01.048Z,101419.97
2023-05-13T12:41:36.344Z,101406.34
2023-05-13T12:44:08.731Z,101424.31
2023-05-13T12:46:37.298Z,101426.31
2023-05-13T12:49:06.062Z,101429.22
2023-05-13T12:51:33.994Z,101428.13
2023-05-13T12:54:01.657Z,101410.22
2023-05-13T12:56:29.051Z,101416.34
2023-05-13T12:58:56.297Z,101406.75
2023-05-13T13:01:28.390Z,101404.22
2023-05-13T13:03:55.929Z,101408.25
2023-05-13T13:06:23.165Z,101415.44
2023-05-13T13:08:50.977Z,101406.16
2023-05-13T13:11:21.503Z,101412.88
2023-05-13T13:13:50.269Z,101413.50
2023-05-13T13:16:20.530Z,101415.03
2023-05-13T13:18:47.737Z,101412.69
2023-05-13T13:21:15.065Z,101413.06
2023-05-13T13:23:42.372Z,101407.47
2023-05-13T13:26:09.517Z,101415.72
2023-05-13T13:28:39.934Z,101421.13
2023-05-13T13:31:10.707Z,101414.16
2023-05-13T13:33:37.724Z,101406.03
2023-05-13T13:36:05.330Z,101406.09
2023-05-13T13:38:32.426Z,101404.28
2023-05-13T13:40:59.557Z,101409.69
2023-05-13T13:43:31.270Z,101401.63
2023-05-13T13:45:58.640Z,101405.38
2023-05-13T13:48:25.754Z,101402.53
2023-05-13T13:50:54.038Z,101396.31
2023-05-13T13:53:22.106Z,101409.91
2023-05-13T13:55:49.316Z,101401.63
2023-05-13T13:58:16.436Z,101394.00
2023-05-13T14:00:45.012Z,101402.72
2023-05-13T14:03:12.289Z,101406.03
2023-05-13T14:05:39.548Z,101390.91
2023-05-13T14:08:06.951Z,101380.97
2023-05-13T14:10:34.156Z,101391.44
2023-05-13T14:13:01.277Z,101377.78
2023-05-13T14:15:31.559Z,101380.03
2023-05-13T14:17:58.967Z,101382.28
2023-05-13T14:20:28.741Z,101376.63
2023-05-13T14:22:56.509Z,101376.53
2023-05-13T14:25:23.635Z,101380.19
2023-05-13T14:27:50.713Z,101373.19
2023-05-13T14:30:18.013Z,101384.63
2023-05-13T14:32:45.473Z,101378.03
2023-05-13T14:35:14.510Z,101371.06
2023-05-13T14:37:42.680Z,101368.91
2023-05-13T14:40:10.402Z,101372.06
2023-05-13T14:42:37.474Z,101367.63
2023-05-13T14:45:05.945Z,101375.81
2023-05-13T14:47:33.186Z,101364.63
2023-05-13T14:50:00.340Z,101363.66
2023-05-13T14:52:30.420Z,101365.88
2023-05-13T14:55:00.564Z,101367.94
2023-05-13T14:57:27.670Z,101363.03
2023-05-13T14:59:59.852Z,101362.88
2023-05-13T15:02:27.315Z,101355.53
2023-05-13T15:04:54.483Z,101362.41
2023-05-13T15:07:21.776Z,101360.38
2023-05-13T15:09:49.044Z,101361.31
2023-05-13T15:12:16.134Z,101358.31
2023-05-13T15:14:43.162Z,101351.09
2023-05-13T15:17:12.101Z,101368.22
2023-05-13T15:19:39.875Z,101365.78
2023-05-13T15:22:06.966Z,101366.13
2023-05-13T15:24:33.983Z,101362.00
2023-05-13T15:27:03.670Z,101354.41
2023-05-13T15:29:33.355Z,101350.16
2023-05-13T15:32:00.381Z,101361.53
2023-05-13T15:34:27.472Z,101356.97
2023-05-13T15:36:54.561Z,101363.66
2023-05-13T15:39:21.941Z,101363.47
2023-05-13T15:41:49.057Z,101364.03
2023-05-13T15:44:19.047Z,101369.41
2023-05-13T15:46:48.845Z,101374.44
2023-05-13T15:49:17.001Z,101368.19
2023-05-13T15:51:44.154Z,101364.75
2023-05-13T15:54:11.278Z,101365.31
2023-05-13T15:56:39.806Z,101365.31
2023-05-13T15:59:09.000Z,101350.22
2023-05-13T16:01:37.509Z,101363.66
2023-05-13T16:04:04.705Z,101354.75
2023-05-13T16:06:31.851Z,101358.94
2023-05-13T16:09:04.778Z,101354.81
2023-05-13T16:11:34.363Z,101358.50
2023-05-13T16:14:01.643Z,101362.41
2023-05-13T16:16:28.768Z,101363.16
2023-05-13T16:18:58.569Z,101363.03
2023-05-13T16:21:25.774Z,101361.72
2023-05-13T16:23:52.856Z,101363.75
2023-05-13T16:26:19.983Z,101362.47
2023-05-13T16:28:47.054Z,101366.81
2023-05-13T16:31:14.257Z,101362.22
2023-05-13T16:33:41.324Z,101374.44
2023-05-13T16:36:11.686Z,101387.63
2023-05-13T16:38:41.801Z,101391.00
2023-05-13T16:41:09.340Z,101396.16
2023-05-13T16:43:36.465Z,101398.84
2023-05-13T16:46:03.898Z,101404.97
2023-05-13T16:48:31.092Z,101399.41
2023-05-13T16:50:58.311Z,101396.88
2023-05-13T16:53:26.284Z,101407.06
2023-05-13T16:55:56.405Z,101405.81
2023-05-13T16:58:23.876Z,101409.88
2023-05-13T17:00:51.929Z,101404.75
2023-05-13T17:03:19.572Z,101404.41
2023-05-13T17:05:46.676Z,101407.97
2023-05-13T17:08:13.747Z,101405.00
2023-05-13T17:10:43.640Z,101399.56
2023-05-13T17:13:10.808Z,101411.44
2023-05-13T17:15:37.890Z,101403.53
2023-05-13T17:18:05.631Z,101401.91
2023-05-13T17:20:35.747Z,101403.16
2023-05-13T17:23:02.965Z,101393.66
2023-05-13T17:25:30.083Z,101402.25
2023-05-13T17:27:57.218Z,101400.88
2023-05-13T17:30:24.524Z,101397.19
2023-05-13T17:32:51.771Z,101404.47
2023-05-13T17:35:19.393Z,101409.28
2023-05-13T17:37:46.462Z,101406.88
2023-05-13T17:40:16.388Z,101416.38
2023-05-13T17:42:43.837Z,101415.47
2023-05-13T17:45:11.264Z,101416.13
2023-05-13T17:47:40.832Z,101414.28
2023-05-13T17:50:10.618Z,101419.47
2023-05-13T17:52:40.030Z,101418.66
2023-05-13T17:55:08.026Z,101411.66
2023-05-13T17:57:35.231Z,101416.22
2023-05-13T18:00:06.445Z,101428.75
2023-05-13T18:02:33.989Z,101417.34
2023-05-13T18:05:01.133Z,101426.00
2023-05-13T18:07:28.396Z,101424.72
2023-05-13T18:09:56.575Z,101420.78
2023-05-13T18:12:23.693Z,101419.09
2023-05-13T18:14:50.785Z,101426.41
2023-05-13T18:17:17.869Z,101422.16
2023-05-13T18:19:50.810Z,101432.06
2023-05-13T18:22:18.083Z,101425.78
2023-05-13T18:24:46.695Z,101431.75
2023-05-13T18:27:14.026Z,101422.16
2023-05-13T18:29:41.082Z,101431.41
2023-05-13T18:32:11.184Z,101431.88
2023-05-13T18:34:38.210Z,101434.88
2023-05-13T18:37:09.860Z,101434.81
2023-05-13T18:39:36.941Z,101432.38
2023-05-13T18:42:04.296Z,101432.22
2023-05-13T18:44:31.451Z,101439.25
2023-05-13T18:46:58.496Z,101444.28
2023-05-13T18:49:28.666Z,101443.00
2023-05-13T18:51:56.040Z,101437.75
2023-05-13T18:54:24.654Z,101434.28
2023-05-13T18:56:51.769Z,101438.94
2023-05-13T18:59:18.891Z,101445.78
2023-05-13T19:01:46.401Z,101438.28
2023-05-13T19:04:15.278Z,101438.69
2023-05-13T19:06:42.479Z,101441.78
2023-05-13T19:09:12.255Z,101454.97
2023-05-13T19:11:39.478Z,101445.06
2023-05-13T19:14:07.094Z,101452.16
2023-05-13T19:16:34.529Z,101456.06
2023-05-13T19:19:01.659Z,101456.19
2023-05-13T19:21:28.735Z,101463.75
2023-05-13T19:23:55.954Z,101454.75
2023-05-13T19:26:23.039Z,101464.38
2023-05-13T19:28:50.592Z,101460.50
2023-05-13T19:31:18.091Z,101459.50
2023-05-13T19:33:46.333Z,101462.56
2023-05-13T19:36:13.629Z,101465.06
2023-05-13T19:38:40.750Z,101459.06
2023-05-13T19:41:07.827Z,101462.28
2023-05-13T19:43:34.867Z,101469.91
2023-05-13T19:46:05.531Z,101462.97
2023-05-13T19:48:32.664Z,101476.28
2023-05-13T19:50:59.715Z,101476.06
2023-05-13T19:53:26.890Z,101472.69
2023-05-13T19:55:55.398Z,101477.38
2023-05-13T19:58:22.741Z,101463.66
2023-05-13T20:00:51.003Z,101474.84
2023-05-13T20:03:18.120Z,101464.31
2023-05-13T20:05:50.925Z,101467.81
2023-05-13T20:08:17.976Z,101467.13
2023-05-13T20:10:45.225Z,101466.50
2023-05-13T20:13:12.714Z,101461.53
2023-05-13T20:15:40.529Z,101463.88
2023-05-13T20:18:07.690Z,101456.72
2023-05-13T20:20:35.361Z,101465.22
2023-05-13T20:23:02.438Z,101460.34
2023-05-13T20:25:29.534Z,101458.72
2023-05-13T20:27:56.977Z,101463.69
2023-05-13T20:30:24.712Z,101466.81
2023-05-13T20:32:52.166Z,101470.69
2023-05-13T20:35:19.701Z,101469.97
2023-05-13T20:37:46.770Z,101466.91
2023-05-13T20:40:13.948Z,101469.66
2023-05-13T20:42:41.211Z,101470.28
2023-05-13T20:45:08.898Z,101468.50
2023-05-13T20:47:36.368Z,101478.13
2023-05-13T20:50:04.172Z,101479.78
2023-05-13T20:52:31.433Z,101473.00
2023-05-13T20:55:01.468Z,101474.34
2023-05-13T20:57:28.567Z,101465.53
2023-05-13T20:59:55.729Z,101465.53
2023-05-13T21:02:22.941Z,101459.38
2023-05-13T21:04:52.681Z,101458.81
2023-05-13T21:07:22.170Z,101457.75
2023-05-13T21:09:49.236Z,101461.19
2023-05-13T21:12:16.337Z,101465.09
2023-05-13T21:14:43.494Z,101472.16
2023-05-13T21:17:10.928Z,101461.16
2023-05-13T21:19:38.079Z,101458.66
2023-05-13T21:22:05.909Z,101460.94
2023-05-13T21:24:33.074Z,101457.78
2023-05-13T21:27:00.142Z,101458.72
2023-05-13T21:29:30.162Z,101456.03
2023-05-13T21:31:57.402Z,101454.81
2023-05-13T21:34:24.483Z,101456.97
2023-05-13T21:36:52.472Z,101460.19
2023-05-13T21:39:19.625Z,101460.94
2023-05-13T21:41:47.623Z,101457.28
2023-05-13T21:44:14.692Z,101449.72
2023-05-13T21:46:41.734Z,101453.94
2023-05-13T21:49:08.866Z,101462.59
2023-05-13T21:51:35.998Z,101457.88
2023-05-13T21:54:03.125Z,101459.50
2023-05-13T21:56:30.177Z,101454.41
2023-05-13T21:58:57.206Z,101454.34
2023-05-13T22:01:24.506Z,101448.34
2023-05-13T22:03:51.638Z,101448.47
2023-05-13T22:06:18.970Z,101451.09
2023-05-13T22:08:46.270Z,101446.72
2023-05-13T22:11:13.301Z,101443.44
2023-05-13T22:13:41.043Z,101442.28
2023-05-13T22:16:08.380Z,101438.78
2023-05-13T22:18:35.676Z,101440.31
2023-05-13T22:21:03.014Z,101432.19
2023-05-13T22:23:30.051Z,101433.69
2023-05-13T22:25:57.125Z,101432.78
2023-05-13T22:28:26.519Z,101438.09
2023-05-13T22:30:55.190Z,101436.03
2023-05-13T22:33:22.360Z,101433.91
2023-05-13T22:35:49.492Z,101438.47
2023-05-13T22:38:16.610Z,101436.56
2023-05-13T22:40:43.733Z,101430.53
2023-05-13T22:43:10.850Z,101438.63
2023-05-13T22:45:37.957Z,101437.88
2023-05-13T22:48:05.265Z,101429.72
2023-05-13T22:50:32.432Z,101432.63
2023-05-13T22:52:59.531Z,101435.81
2023-05-13T22:55:26.572Z,101428.00
2023-05-13T22:57:53.679Z,101433.19
2023-05-13T23:00:21.238Z,101438.19
2023-05-13T23:02:48.438Z,101439.22
2023-05-13T23:05:15.777Z,101431.28
2023-05-13T23:07:42.833Z,101435.31
2023-05-13T23:10:12.520Z,101430.72
2023-05-13T23:12:39.615Z,101424.34
2023-05-13T23:15:07.496Z,101427.00
2023-05-13T23:17:34.657Z,101422.88
2023-05-13T23:20:01.768Z,101421.09
2023-05-13T23:22:28.957Z,101420.53
2023-05-13T23:24:56.059Z,101413.56
2023-05-13T23:27:23.132Z,101412.53
2023-05-13T23:29:50.238Z,101418.72
2023-05-13T23:32:17.409Z,101408.44
2023-05-13T23:34:44.635Z,101408.06
2023-05-13T23:37:15.577Z,101408.50
2023-05-13T23:39:42.694Z,101406.69
2023-05-13T23:42:09.754Z,101409.22
2023-05-13T23:44:38.664Z,101403.34
2023-05-13T23:47:05.888Z,101405.44
2023-05-13T23:49:32.935Z,101401.97
2023-05-13T23:51:59.988Z,101396.97
2023-05-13T23:54:27.030Z,101397.00
2023-05-13T23:56:54.088Z,101394.91
2023-05-13T23:59:21.122Z,101390.84
